createdAt,value
2022-08-17T00:01:10.819Z,8.53
2022-08-17T00:03:57.797Z,7.90
2022-08-17T00:06:44.828Z,7.80
2022-08-17T00:09:32.666Z,7.70
2022-08-17T00:12:40.944Z,8.00
2022-08-17T00:15:28.417Z,8.33
2022-08-17T00:19:00.936Z,8.47
2022-08-17T00:21:25.494Z,8.40
2022-08-17T00:24:12.399Z,8.27
2022-08-17T00:26:59.456Z,8.23
2022-08-17T00:29:46.843Z,8.27
2022-08-17T00:33:16.006Z,8.03
2022-08-17T00:35:48.505Z,8.10
2022-08-17T00:38:35.887Z,7.47
2022-08-17T00:41:26.756Z,7.53
2022-08-17T00:44:13.429Z,8.60
2022-08-17T00:46:59.874Z,7.90
2022-08-17T00:49:47.506Z,8.77
2022-08-17T00:52:40.677Z,8.50
2022-08-17T00:55:27.558Z,8.63
2022-08-17T00:58:14.125Z,8.33
2022-08-17T01:01:02.735Z,8.17
2022-08-17T01:03:50.075Z,8.43
2022-08-17T01:06:38.977Z,9.47
2022-08-17T01:09:26.534Z,9.10
2022-08-17T01:12:13.752Z,7.63
2022-08-17T01:15:00.267Z,9.00
2022-08-17T01:17:47.393Z,8.70
2022-08-17T01:20:34.463Z,8.57
2022-08-17T01:23:36.874Z,8.37
2022-08-17T01:26:24.491Z,9.00
2022-08-17T01:29:11.559Z,8.30
2022-08-17T01:32:01.307Z,9.13
2022-08-17T01:34:50.926Z,8.50
2022-08-17T01:37:40.124Z,8.97
2022-08-17T01:40:33.591Z,9.07
2022-08-17T01:43:24.154Z,9.07
2022-08-17T01:46:17.549Z,8.97
2022-08-17T01:49:09.225Z,9.23
2022-08-17T01:51:56.282Z,9.10
2022-08-17T01:54:47.116Z,8.50
2022-08-17T01:57:34.891Z,9.37
2022-08-17T02:00:21.738Z,8.67
2022-08-17T02:03:09.250Z,9.30
2022-08-17T02:05:55.676Z,9.07
2022-08-17T02:09:01.894Z,8.97
2022-08-17T02:11:48.785Z,9.20
2022-08-17T02:14:38.628Z,9.10
2022-08-17T02:17:25.143Z,9.13
2022-08-17T02:20:12.161Z,9.30
2022-08-17T02:23:01.116Z,9.83
2022-08-17T02:25:48.873Z,9.63
2022-08-17T02:28:35.906Z,9.50
2022-08-17T02:31:23.965Z,10.00
2022-08-17T02:34:10.672Z,10.93
2022-08-17T02:36:57.469Z,9.23
2022-08-17T02:39:43.936Z,9.00
2022-08-17T02:42:33.869Z,9.13
2022-08-17T02:45:23.436Z,9.50
2022-08-17T02:48:11.672Z,9.57
2022-08-17T02:50:58.101Z,9.80
2022-08-17T02:53:44.562Z,9.43
2022-08-17T02:56:31.008Z,9.13
2022-08-17T02:59:17.365Z,9.63
2022-08-17T03:02:04.359Z,9.43
2022-08-17T03:04:52.205Z,9.73
2022-08-17T03:07:39.188Z,9.70
2022-08-17T03:10:26.238Z,9.80
2022-08-17T03:13:14.691Z,9.23
2022-08-17T03:16:01.313Z,9.50
2022-08-17T03:18:48.581Z,10.20
2022-08-17T03:21:36.767Z,10.50
2022-08-17T03:24:25.148Z,9.93
2022-08-17T03:27:15.655Z,9.87
2022-08-17T03:30:02.472Z,10.43
2022-08-17T03:32:51.953Z,9.83
2022-08-17T03:35:40.710Z,9.40
2022-08-17T03:38:28.777Z,8.87
2022-08-17T03:41:25.388Z,10.83
2022-08-17T03:44:11.857Z,10.20
2022-08-17T03:47:15.688Z,9.67
2022-08-17T03:50:19.761Z,10.00
2022-08-17T03:53:27.980Z,10.33
2022-08-17T03:56:33.436Z,9.90
2022-08-17T03:59:22.686Z,10.80
2022-08-17T04:02:12.286Z,9.80
2022-08-17T04:04:59.358Z,10.17
2022-08-17T04:07:45.756Z,10.00
2022-08-17T04:10:32.962Z,10.33
2022-08-17T04:13:26.143Z,10.50
2022-08-17T04:16:12.789Z,10.87
2022-08-17T04:18:59.198Z,9.77
2022-08-17T04:21:45.606Z,9.23
2022-08-17T04:24:32.124Z,10.17
2022-08-17T04:27:18.544Z,9.17
2022-08-17T04:30:08.253Z,10.10
2022-08-17T04:33:09.820Z,10.17
2022-08-17T04:35:59.850Z,10.27
2022-08-17T04:38:47.165Z,10.37
2022-08-17T04:41:50.981Z,10.27
2022-08-17T04:44:38.190Z,10.27
2022-08-17T04:47:26.147Z,10.70
2022-08-17T04:50:12.466Z,11.03
2022-08-17T04:52:59.323Z,11.00
2022-08-17T04:55:46.480Z,11.10
2022-08-17T04:58:32.996Z,11.37
2022-08-17T05:01:23.470Z,10.80
2022-08-17T05:04:33.402Z,11.73
2022-08-17T05:07:24.665Z,11.77
2022-08-17T05:10:12.987Z,10.60
2022-08-17T05:13:00.625Z,12.93
2022-08-17T05:15:49.463Z,11.10
2022-08-17T05:18:37.252Z,12.07
2022-08-17T05:21:26.773Z,11.83
2022-08-17T05:24:38.213Z,12.10
2022-08-17T05:27:20.139Z,12.17
2022-08-17T05:30:08.275Z,13.17
2022-08-17T05:32:58.337Z,12.83
2022-08-17T05:35:47.969Z,12.73
2022-08-17T05:38:36.209Z,12.97
2022-08-17T05:41:22.465Z,12.83
2022-08-17T05:44:08.801Z,12.37
2022-08-17T05:46:55.164Z,13.90
2022-08-17T05:49:41.599Z,13.40
2022-08-17T05:52:34.747Z,13.50
2022-08-17T05:55:31.880Z,13.37
2022-08-17T05:58:28.032Z,13.13
2022-08-17T06:01:23.904Z,12.87
2022-08-17T06:04:23.381Z,12.50
2022-08-17T06:07:17.673Z,12.03
2022-08-17T06:10:18.334Z,12.00
2022-08-17T06:13:15.445Z,13.03
2022-08-17T06:16:33.627Z,12.07
2022-08-17T06:19:17.961Z,11.70
2022-08-17T06:22:06.499Z,12.33
2022-08-17T06:25:10.306Z,13.07
2022-08-17T06:28:01.760Z,11.93
2022-08-17T06:31:00.805Z,12.20
2022-08-17T06:33:47.939Z,12.83
2022-08-17T06:36:49.459Z,12.13
2022-08-17T06:39:45.868Z,12.73
2022-08-17T06:43:02.618Z,12.23
2022-08-17T06:45:54.937Z,12.87
2022-08-17T06:48:48.427Z,11.93
2022-08-17T06:51:39.538Z,11.87
2022-08-17T06:54:35.128Z,12.70
2022-08-17T06:57:26.475Z,11.70
2022-08-17T07:00:17.577Z,10.97
2022-08-17T07:03:14.066Z,9.60
2022-08-17T07:06:07.051Z,9.27
2022-08-17T07:09:01.092Z,9.30
2022-08-17T07:11:51.814Z,8.57
2022-08-17T07:14:41.301Z,7.70
2022-08-17T07:17:46.894Z,8.07
2022-08-17T07:20:37.530Z,8.03
2022-08-17T07:23:30.469Z,7.47
2022-08-17T07:26:17.013Z,8.47
2022-08-17T07:29:03.708Z,7.33
2022-08-17T07:31:51.108Z,7.87
2022-08-17T07:35:02.022Z,7.57
2022-08-17T07:37:54.464Z,7.20
2022-08-17T07:40:42.382Z,7.70
2022-08-17T07:43:31.141Z,7.10
2022-08-17T07:46:38.435Z,6.90
2022-08-17T07:49:35.600Z,6.80
2022-08-17T07:52:50.733Z,6.67
2022-08-17T07:55:41.788Z,6.33
2022-08-17T07:58:28.436Z,6.47
2022-08-17T08:01:18.286Z,6.43
2022-08-17T08:04:58.860Z,6.13
2022-08-17T08:07:39.279Z,6.20
2022-08-17T08:10:33.560Z,5.77
2022-08-17T08:13:27.954Z,5.83
2022-08-17T08:16:24.307Z,5.70
2022-08-17T08:19:20.930Z,5.90
2022-08-17T08:22:15.040Z,5.53
2022-08-17T08:25:15.327Z,5.90
2022-08-17T08:28:14.174Z,5.43
2022-08-17T08:31:09.584Z,5.60
2022-08-17T08:34:09.151Z,7.00
2022-08-17T08:37:36.631Z,5.80
2022-08-17T08:40:43.868Z,5.73
2022-08-17T08:43:37.190Z,5.37
2022-08-17T08:46:31.738Z,5.50
2022-08-17T08:50:05.033Z,5.07
2022-08-17T08:53:08.290Z,5.00
2022-08-17T08:56:00.348Z,5.47
2022-08-17T08:58:53.560Z,5.17
2022-08-17T09:01:50.139Z,5.63
2022-08-17T09:05:13.320Z,5.23
2022-08-17T09:08:08.815Z,5.30
2022-08-17T09:11:01.206Z,4.87
2022-08-17T09:13:55.581Z,5.80
2022-08-17T09:16:46.815Z,5.53
2022-08-17T09:19:38.558Z,4.67
2022-08-17T09:22:36.751Z,5.10
2022-08-17T09:25:27.042Z,4.90
2022-08-17T09:28:20.316Z,4.73
2022-08-17T09:31:10.704Z,4.90
2022-08-17T09:34:01.274Z,4.90
2022-08-17T09:36:56.414Z,4.47
2022-08-17T09:39:47.594Z,4.30
2022-08-17T09:42:43.708Z,4.23
2022-08-17T09:45:36.742Z,4.20
2022-08-17T09:48:28.250Z,4.50
2022-08-17T09:51:23.304Z,4.10
2022-08-17T09:54:37.992Z,4.00
2022-08-17T09:57:43.282Z,4.23
2022-08-17T10:00:35.585Z,4.20
2022-08-17T10:03:44.172Z,4.30
2022-08-17T10:06:37.875Z,3.60
2022-08-17T10:09:39.434Z,4.30
2022-08-17T10:12:35.569Z,4.37
2022-08-17T10:15:46.866Z,3.80
2022-08-17T10:18:44.988Z,4.27
2022-08-17T10:22:00.830Z,3.87
2022-08-17T10:25:22.962Z,3.80
2022-08-17T10:28:19.874Z,3.80
2022-08-17T10:31:33.689Z,4.03
2022-08-17T10:34:41.906Z,3.80
2022-08-17T10:37:54.573Z,4.10
2022-08-17T10:40:50.084Z,4.40
2022-08-17T10:44:02.189Z,4.50
2022-08-17T10:47:08.441Z,3.23
2022-08-17T10:49:56.116Z,4.10
2022-08-17T10:52:50.277Z,4.00
2022-08-17T10:55:36.821Z,4.37
2022-08-17T10:58:24.659Z,4.30
2022-08-17T11:01:14.371Z,4.07
2022-08-17T11:04:08.981Z,4.00
2022-08-17T11:07:08.704Z,3.83
2022-08-17T11:10:15.326Z,3.80
2022-08-17T11:13:09.971Z,3.30
2022-08-17T11:16:10.763Z,2.80
2022-08-17T11:19:27.303Z,3.15
2022-08-17T11:22:50.154Z,2.90
2022-08-17T11:25:43.157Z,3.20
2022-08-17T11:28:35.242Z,3.20
2022-08-17T11:31:38.854Z,2.80
2022-08-17T11:34:28.552Z,3.28
2022-08-17T11:37:29.017Z,2.60
2022-08-17T11:40:38.938Z,2.72
2022-08-17T11:44:01.983Z,3.28
2022-08-17T11:47:23.704Z,2.55
2022-08-17T11:50:48.051Z,2.60
2022-08-17T11:54:21.503Z,2.67
2022-08-17T11:57:54.384Z,2.80
2022-08-17T12:00:56.393Z,2.83
2022-08-17T12:03:54.451Z,2.90
2022-08-17T12:06:51.126Z,2.65
2022-08-17T12:09:42.234Z,2.90
2022-08-17T12:12:35.793Z,2.55
2022-08-17T12:15:29.837Z,2.53
2022-08-17T12:18:22.717Z,2.70
2022-08-17T12:21:25.830Z,2.80
2022-08-17T12:24:32.782Z,2.60
2022-08-17T12:28:04.178Z,2.85
2022-08-17T12:30:34.059Z,3.42
2022-08-17T12:33:28.395Z,2.90
2022-08-17T12:36:19.113Z,3.38
2022-08-17T12:39:13.935Z,3.38
2022-08-17T12:42:03.079Z,3.40
2022-08-17T12:44:50.480Z,3.22
2022-08-17T12:47:38.626Z,3.13
2022-08-17T12:50:29.055Z,3.28
2022-08-17T12:53:21.103Z,3.33
2022-08-17T12:56:12.390Z,3.45
2022-08-17T12:58:59.215Z,3.40
2022-08-17T13:01:49.460Z,3.75
2022-08-17T13:04:40.460Z,3.95
2022-08-17T13:07:31.632Z,4.10
2022-08-17T13:10:31.648Z,4.10
2022-08-17T13:13:22.340Z,3.72
2022-08-17T13:16:17.469Z,3.42
2022-08-17T13:19:09.142Z,3.75
2022-08-17T13:21:58.578Z,4.03
2022-08-17T13:24:54.537Z,3.58
2022-08-17T13:27:44.103Z,3.53
2022-08-17T13:30:33.449Z,3.25
2022-08-17T13:33:43.313Z,4.30
2022-08-17T13:36:33.542Z,3.47
2022-08-17T13:39:22.710Z,3.38
2022-08-17T13:42:32.835Z,3.53
2022-08-17T13:45:45.914Z,3.25
2022-08-17T13:48:37.696Z,3.40
2022-08-17T13:51:33.663Z,3.28
2022-08-17T13:54:26.885Z,3.45
2022-08-17T13:57:23.461Z,3.83
2022-08-17T14:00:18.589Z,3.47
2022-08-17T14:03:06.317Z,3.80
2022-08-17T14:05:53.881Z,3.03
2022-08-17T14:08:40.286Z,2.85
2022-08-17T14:11:26.770Z,3.00
2022-08-17T14:14:13.285Z,3.00
2022-08-17T14:17:01.498Z,3.30
2022-08-17T14:19:48.138Z,3.47
2022-08-17T14:22:37.893Z,3.30
2022-08-17T14:25:27.024Z,3.38
2022-08-17T14:28:13.802Z,3.63
2022-08-17T14:31:01.542Z,3.13
2022-08-17T14:33:49.292Z,3.33
2022-08-17T14:36:35.888Z,3.40
2022-08-17T14:39:22.230Z,3.00
2022-08-17T14:42:11.405Z,3.50
2022-08-17T14:44:58.997Z,3.42
2022-08-17T14:47:45.413Z,3.55
2022-08-17T14:50:35.439Z,3.30
2022-08-17T14:53:22.713Z,3.13
2022-08-17T14:56:09.022Z,3.30
2022-08-17T14:58:55.581Z,3.65
2022-08-17T15:01:41.996Z,3.42
2022-08-17T15:04:28.879Z,3.25
2022-08-17T15:07:16.925Z,3.40
2022-08-17T15:10:04.483Z,3.40
2022-08-17T15:12:51.166Z,2.70
2022-08-17T15:15:37.857Z,3.03
2022-08-17T15:18:25.115Z,2.90
2022-08-17T15:21:11.621Z,3.20
2022-08-17T15:23:59.718Z,2.70
2022-08-17T15:26:47.717Z,2.83
2022-08-17T15:29:35.273Z,3.17
2022-08-17T15:32:29.576Z,3.28
2022-08-17T15:35:15.855Z,2.63
2022-08-17T15:38:10.713Z,2.75
2022-08-17T15:40:59.656Z,3.08
2022-08-17T15:43:47.281Z,2.58
2022-08-17T15:46:33.775Z,2.72
2022-08-17T15:49:22.510Z,2.65
2022-08-17T15:52:17.699Z,2.58
2022-08-17T15:55:04.211Z,2.88
2022-08-17T15:57:53.090Z,2.75
2022-08-17T16:00:47.164Z,2.83
2022-08-17T16:04:01.193Z,3.10
2022-08-17T16:06:46.988Z,3.08
2022-08-17T16:09:33.538Z,3.00
2022-08-17T16:12:22.015Z,2.85
2022-08-17T16:15:11.470Z,2.95
2022-08-17T16:17:57.874Z,2.70
2022-08-17T16:20:44.495Z,2.88
2022-08-17T16:23:31.369Z,2.80
2022-08-17T16:26:18.899Z,3.00
2022-08-17T16:29:07.661Z,3.00
2022-08-17T16:31:56.019Z,3.15
2022-08-17T16:34:43.100Z,2.80
2022-08-17T16:37:29.440Z,2.65
2022-08-17T16:40:17.290Z,2.60
2022-08-17T16:43:03.979Z,3.10
2022-08-17T16:45:52.205Z,3.10
2022-08-17T16:48:40.405Z,3.15
2022-08-17T16:51:26.749Z,2.72
2022-08-17T16:54:17.578Z,2.97
2022-08-17T16:57:05.527Z,2.80
2022-08-17T16:59:53.774Z,2.88
2022-08-17T17:02:41.856Z,2.90
2022-08-17T17:05:45.643Z,2.72
2022-08-17T17:08:44.488Z,3.20
2022-08-17T17:11:36.385Z,3.05
2022-08-17T17:14:28.435Z,2.83
2022-08-17T17:17:25.424Z,2.88
2022-08-17T17:20:17.380Z,2.90
2022-08-17T17:23:12.746Z,2.70
2022-08-17T17:26:06.578Z,3.38
2022-08-17T17:29:03.931Z,2.92
2022-08-17T17:31:57.801Z,2.78
2022-08-17T17:34:51.007Z,3.00
2022-08-17T17:37:38.819Z,3.08
2022-08-17T17:40:33.826Z,2.72
2022-08-17T17:43:39.999Z,3.00
2022-08-17T17:46:30.542Z,3.17
2022-08-17T17:49:18.339Z,2.85
2022-08-17T17:52:15.528Z,3.28
2022-08-17T17:55:16.415Z,3.13
2022-08-17T17:58:19.382Z,2.92
2022-08-17T18:01:20.301Z,3.00
2022-08-17T18:04:21.336Z,2.80
2022-08-17T18:07:17.927Z,3.10
2022-08-17T18:10:29.211Z,3.40
2022-08-17T18:13:26.730Z,3.08
2022-08-17T18:16:15.337Z,6.60
2022-08-17T18:19:02.460Z,3.20
2022-08-17T18:21:52.149Z,3.50
2022-08-17T18:24:42.106Z,3.20
2022-08-17T18:27:35.469Z,3.50
2022-08-17T18:30:28.979Z,3.70
2022-08-17T18:33:26.543Z,3.13
2022-08-17T18:36:14.124Z,3.83
2022-08-17T18:39:11.965Z,3.60
2022-08-17T18:42:03.366Z,3.60
2022-08-17T18:44:54.776Z,3.63
2022-08-17T18:47:55.288Z,3.80
2022-08-17T18:50:42.696Z,3.70
2022-08-17T18:53:34.648Z,3.40
2022-08-17T18:56:30.927Z,3.50
2022-08-17T18:59:34.477Z,3.73
2022-08-17T19:02:45.586Z,3.90
2022-08-17T19:05:38.427Z,3.57
2022-08-17T19:08:35.006Z,3.60
2022-08-17T19:11:27.507Z,3.80
2022-08-17T19:14:17.513Z,3.43
2022-08-17T19:17:10.086Z,3.40
2022-08-17T19:20:01.273Z,3.30
2022-08-17T19:23:01.505Z,3.10
2022-08-17T19:25:52.813Z,3.00
2022-08-17T19:28:48.523Z,3.27
2022-08-17T19:31:36.396Z,2.90
2022-08-17T19:34:33.612Z,3.23
2022-08-17T19:37:33.225Z,3.60
2022-08-17T19:40:51.886Z,3.23
2022-08-17T19:43:57.550Z,3.67
2022-08-17T19:46:56.085Z,3.13
2022-08-17T19:49:57.925Z,3.20
2022-08-17T19:52:50.394Z,3.43
2022-08-17T19:55:51.816Z,3.20
2022-08-17T19:58:56.841Z,3.33
2022-08-17T20:01:47.999Z,3.37
2022-08-17T20:04:41.922Z,3.60
2022-08-17T20:07:32.555Z,3.07
2022-08-17T20:10:30.000Z,3.20
2022-08-17T20:13:33.282Z,3.60
2022-08-17T20:16:21.084Z,3.43
2022-08-17T20:19:13.323Z,3.60
2022-08-17T20:22:04.729Z,3.47
2022-08-17T20:24:56.138Z,3.83
2022-08-17T20:27:53.312Z,3.63
2022-08-17T20:30:48.932Z,3.63
2022-08-17T20:33:38.098Z,4.43
2022-08-17T20:36:25.832Z,4.00
2022-08-17T20:39:34.596Z,4.10
2022-08-17T20:42:32.897Z,3.70
2022-08-17T20:45:59.516Z,3.43
2022-08-17T20:48:49.674Z,3.40
2022-08-17T20:52:00.582Z,3.70
2022-08-17T20:54:51.173Z,3.50
2022-08-17T20:57:48.543Z,3.97
2022-08-17T21:00:44.773Z,3.77
2022-08-17T21:03:52.153Z,3.80
2022-08-17T21:07:13.547Z,3.50
2022-08-17T21:10:12.629Z,3.60
2022-08-17T21:13:23.628Z,4.00
2022-08-17T21:16:41.305Z,4.20
2022-08-17T21:20:00.495Z,4.00
2022-08-17T21:23:05.565Z,3.83
2022-08-17T21:26:13.314Z,4.20
2022-08-17T21:29:31.086Z,3.50
2022-08-17T21:32:30.421Z,3.97
2022-08-17T21:35:29.979Z,4.00
2022-08-17T21:38:19.887Z,3.67
2022-08-17T21:41:06.749Z,3.57
2022-08-17T21:44:05.309Z,4.23
2022-08-17T21:46:54.554Z,4.40
2022-08-17T21:49:41.104Z,4.70
2022-08-17T21:52:29.142Z,4.50
2022-08-17T21:55:28.225Z,4.53
2022-08-17T21:58:29.279Z,4.73
2022-08-17T22:01:27.393Z,4.50
2022-08-17T22:04:21.505Z,5.13
2022-08-17T22:07:10.164Z,6.07
2022-08-17T22:09:58.235Z,5.90
2022-08-17T22:13:03.501Z,6.70
2022-08-17T22:16:15.632Z,6.80
2022-08-17T22:19:15.900Z,7.17
2022-08-17T22:22:07.815Z,7.20
2022-08-17T22:24:57.589Z,7.60
2022-08-17T22:27:54.406Z,7.70
2022-08-17T22:30:43.426Z,7.90
2022-08-17T22:33:36.652Z,8.40
2022-08-17T22:36:29.054Z,8.13
2022-08-17T22:39:41.900Z,8.37
2022-08-17T22:42:28.981Z,8.33
2022-08-17T22:45:17.456Z,9.53
2022-08-17T22:48:05.230Z,9.33
2022-08-17T22:50:52.648Z,8.93
2022-08-17T22:53:56.732Z,8.97
2022-08-17T22:57:07.154Z,9.00
2022-08-17T22:59:57.023Z,9.20
2022-08-17T23:03:06.690Z,8.97
2022-08-17T23:06:05.442Z,9.23
2022-08-17T23:08:54.915Z,9.60
2022-08-17T23:11:49.527Z,9.50
2022-08-17T23:14:41.177Z,9.40
2022-08-17T23:17:30.393Z,8.83
2022-08-17T23:20:20.155Z,9.90
2022-08-17T23:23:08.979Z,9.70
2022-08-17T23:25:55.654Z,11.13
2022-08-17T23:28:43.849Z,9.67
2022-08-17T23:31:33.005Z,9.63
2022-08-17T23:34:20.013Z,10.57
2022-08-17T23:37:09.025Z,10.80
2022-08-17T23:39:55.553Z,9.83
2022-08-17T23:42:46.224Z,9.20
2022-08-17T23:45:33.732Z,10.47
2022-08-17T23:48:32.497Z,10.87
2022-08-17T23:51:27.588Z,11.20
2022-08-17T23:54:21.127Z,10.20
2022-08-17T23:57:09.182Z,10.10
2022-08-17T23:59:56.726Z,10.90
